Sedgwick Reserve, California Weather observations

Data are for 10 minute period ending at time listed.
 Day   Time   Solar   Ave.   Ave.  Ave.  Vector  Max.   Baro.   Total    
  of    of     Rad.   Air    Rel.  Wind   Wind   Wind  Press.  Precip.   
Year   Day            Temp.  Hum.  Speed  Dir.   Gust                    
2016   (PST)  Kw/m2    F      %     mph   deg.    mph    mb.     in.     
-------------------------------------------------------------------------
 126   12:40   0.06   62.8    53    3.4   126     6.3   969.6    0.00 
 126   12:50   0.07   62.6    54    3.8   124     8.1   969.7    0.00 
 126   13:00   0.09   62.2    56    4.9   114     9.6   969.6    0.00 
 126   13:10   0.10   62.3    55    3.3   113     6.9   969.5    0.00 
 126   13:20   0.11   62.7    54    3.2   166     5.4   969.5    0.00 
 126   13:30   0.11   62.3    56    1.5   150     5.1   969.5    0.00 
 126   13:40   0.17   62.7    55    1.6   286     4.4   969.5    0.00 
 126   13:50   0.15   62.5    55    3.4   255     6.2   969.4    0.00 
 126   14:00   0.14   62.7    54    2.1   288     5.4   969.4    0.00 
 126   14:10   0.14   63.1    53    3.8   242     7.6   969.2    0.00 
 126   14:20   0.08   62.9    54    3.9   201     7.4   969.0    0.00 
 126   14:30   0.07   62.1    60    5.5   137    12.2   969.0    0.01 
 126   14:40   0.05   59.3    69    3.8   120    10.2   968.9    0.00 
 126   14:50   0.05   60.2    62    7.2   210    11.5   968.7    0.00 
 126   15:00   0.06   61.1    59    8.2   206    14.9   968.6    0.00 
 126   15:10   0.08   61.1    59    7.5   209    13.9   968.6    0.00 
 126   15:20   0.07   60.9    58    6.9   232    14.0   968.6    0.00 
 126   15:30   0.04   60.8    58    6.3   231    10.5   968.6    0.00 
 126   15:40   0.03   60.2    64    6.4   270     8.8   968.7    0.00 
 126   15:50   0.03   59.3    69    6.3   272     9.6   968.7    0.00 
 126   16:00   0.04   58.8    72    5.4   296    10.4   968.6    0.00 
 126   16:10   0.07   58.7    73    3.7   311     7.2   968.5    0.00 
 126   16:20   0.07   58.7    74    4.1   297     8.9   968.5    0.00 
 126   16:30   0.07   58.6    74    3.4   277     7.2   968.5    0.00 
 126   16:40   0.07   58.3    75    5.7   320    10.6   968.5    0.00 
 126   16:50   0.07   57.6    76    5.1   317     9.1   968.5    0.00 
 126   17:00   0.05   57.8    76    3.7   326     8.3   968.5    0.00 
 126   17:10   0.02   57.1    78    4.0   337     8.7   968.6    0.00 
 126   17:20   0.01   56.4    81    3.4   346     7.0   968.6    0.00 
 126   17:30   0.01   56.0    82    2.5   325     5.9   968.5    0.00 
 126   17:40   0.01   55.8    83    3.7   331     8.2   968.4    0.00 
 126   17:50   0.01   55.6    84    3.0   329     6.7   968.5    0.00 
 126   18:00   0.01   55.5    85    2.8   330     6.1   968.5    0.00 
 126   18:10   0.02   55.4    85    3.6   325     6.4   968.5    0.00 
 126   18:20   0.03   55.3    86    3.9   325     6.2   968.5    0.01 
 126   18:30   0.02   55.2    88    2.6   343     4.4   968.5    0.00 
 126   18:40   0.01   55.1    89    1.7   341     3.4   968.5    0.00 
 126   18:50   0.00   54.9    90    3.3   341     6.7   968.5    0.00 
 126   19:00   0.00   54.7    89    1.3   340     4.7   968.6    0.00 
 126   19:10   0.00   54.8    90    0.0   205     0.9   968.6    0.00 
 126   19:20   0.00   54.8    90    0.1   205     1.4   968.8    0.00 
 126   19:30   0.00   54.7    91    2.4   260     3.0   968.9    0.00 
 126   19:40   0.00   54.5    90    2.3   289     2.9   968.9    0.00 
 126   19:50   0.00   54.7    89    3.1   324     4.2   969.0    0.00 
 126   20:00   0.00   54.9    88    2.8   307     4.1   969.0    0.00 
 126   20:10   0.00   54.8    89    1.0   250     2.3   969.0    0.00 
 126   20:20   0.00   54.7    90    0.6    47     1.2   969.0    0.00 
 126   20:30   0.00   54.8    90    0.4     7     2.2   969.0    0.00 
 126   20:40   0.00   54.5    91    1.6    16     3.0   969.1    0.00 
 126   20:50   0.00   54.3    92    1.0   278     2.3   969.1    0.00 
 126   21:00   0.00   54.0    91    1.5   273     2.4   969.2    0.00 
 126   21:10   0.00   53.8    92    2.1   255     2.3   969.2    0.00 
 126   21:20   0.00   53.4    92    3.1   274     4.7   969.2    0.00 
 126   21:30   0.00   53.4    92    2.3   319     4.7   969.2    0.00 
 126   21:40   0.00   53.2    92    1.0   227     1.5   969.2    0.00 
 126   21:50   0.00   53.0    92    2.2   311     2.9   969.2    0.00 
 126   22:00   0.00   53.1    92    1.1   350     2.6   969.1    0.00 
 126   22:10   0.00   52.9    93    1.4    11     2.3   969.1    0.00 
 126   22:20   0.00   52.7    93    0.9   285     2.3   969.0    0.00 
 126   22:30   0.00   52.7    94    1.1     6     2.8   968.9    0.00 
 126   22:40   0.00   52.8    94    2.3     1     3.2   969.0    0.00 
 126   22:50   0.00   52.7    94    1.1     6     1.9   969.0    0.00 
 126   23:00   0.00   52.5    94    1.0   325     2.0   969.0    0.00 
 126   23:10   0.00   52.3    94    1.2   268     1.8   969.0    0.00 
 126   23:20   0.00   52.3    94    2.0   245     2.9   969.0    0.00 
 126   23:30   0.00   52.3    94    3.0   269     4.2   969.0    0.00 
 126   23:40   0.00   52.4    94    2.8   266     4.2   969.0    0.00 
 126   23:50   0.00   52.6    94    1.8    58     2.5   969.0    0.00 
 127    0:00   0.00   52.8    94    1.8    13     2.6   969.0    0.00 
 127    0:10   0.00   53.0    94    0.6    21     1.6   969.0    0.00 
 127    0:20   0.00   53.1    94    0.0     0     0.0   968.9    0.00 
 127    0:30   0.00   52.9    94    0.0     0     0.0   968.8    0.00 
 127    0:40   0.00   52.5    94    0.1   286     0.9   968.7    0.00 
 127    0:50   0.00   52.4    94    0.0     0     0.0   968.6    0.00 
 127    1:00   0.00   52.2    95    2.8     4     4.1   968.6    0.00 
 127    1:10   0.00   51.9    95    2.4     9     3.4   968.4    0.00 
 127    1:20   0.00   51.9    96    0.9   295     1.5   968.3    0.00 
 127    1:30   0.00   51.8    96    2.2     8     3.9   968.2    0.00 
 127    1:40   0.00   51.4    96    1.1   312     3.7   968.2    0.00 
 127    1:50   0.00   51.3    96    1.1   254     1.6   968.1    0.00 
 127    2:00   0.00   51.4    96    1.9   250     3.1   968.0    0.00 
 127    2:10   0.00   51.4    96    2.5   303     3.1   968.0    0.00 
 127    2:20   0.00   51.5    96    1.8     4     2.1   968.0    0.00 
 127    2:30   0.00   51.5    96    1.1   336     2.2   967.9    0.00 
 127    2:40   0.00   51.4    96    1.9   282     3.1   967.8    0.00 
 127    2:50   0.00   51.4    96    1.0    30     1.5   967.8    0.00 
 127    3:00   0.00   51.4    96    1.4    22     3.1   967.7    0.00 
 127    3:10   0.00   51.3    96    1.4   313     3.1   967.6    0.00 
 127    3:20   0.00   51.0    96    1.9   275     2.5   967.6    0.00 
 127    3:30   0.00   50.9    96    2.0   276     2.9   967.6    0.00 
 127    3:40   0.00   51.0    96    1.7   280     3.1   967.7    0.00 
 127    3:50   0.00   51.0    96    2.5   245     4.3   967.7    0.00 
 127    4:00   0.00   51.3    96    2.1   299     2.7   967.7    0.00 
 127    4:10   0.00   51.0    96    2.8   280     4.9   967.8    0.00 
 127    4:20   0.00   51.3    96    2.9   298     4.3   967.8    0.00 
 127    4:30   0.00   51.3    96    1.9   351     4.0   967.9    0.00 
 127    4:40   0.00   51.0    96    3.8     7     6.0   967.9    0.00 
 127    4:50   0.00   50.5    96    2.4   322     4.6   968.0    0.00 
 127    5:00   0.00   50.4    96    2.4   288     3.3   968.2    0.00 
 127    5:10   0.00   50.5    96    1.8     4     3.2   968.3    0.00 
 127    5:20   0.01   50.5    96    2.0   331     3.7   968.3    0.00 
 127    5:30   0.01   50.8    96    2.4   359     4.3   968.4    0.00 
 127    5:40   0.03   51.1    96    0.2   346     2.0   968.5    0.00 
 127    5:50   0.03   51.3    96    0.4   314     1.6   968.5    0.00 
 127    6:00   0.03   51.5    96    0.7   256     1.3   968.6    0.00 
 127    6:10   0.03   51.6    96    1.3   279     2.0   968.7    0.00 
 127    6:20   0.06   52.0    96    1.1   282     2.3   968.7    0.00 
 127    6:30   0.07   52.4    95    1.1   253     2.2   968.7    0.00 
 127    6:40   0.09   53.1    95    1.0   285     1.8   968.8    0.00 
 127    6:50   0.11   53.9    94    0.3   230     1.6   968.9    0.00 
 127    7:00   0.18   54.5    92    0.8   172     2.4   968.8    0.00 
 127    7:10   0.21   55.3    90    1.8   200     3.3   968.7    0.00 
 127    7:20   0.34   57.2    83    1.8   175     3.6   968.7    0.00 
 127    7:30   0.51   59.9    77    2.2   115     5.8   968.7    0.00 
 127    7:40   0.46   60.2    76    3.5   108     6.1   968.8    0.00 
 127    7:50   0.70   61.1    74    3.4   116     5.8   968.8    0.00 
 127    8:00   0.46   61.3    71    2.6   346     6.1   968.9    0.00 
 127    8:10   0.25   58.5    72    3.6   267     5.3   969.0    0.00 
 127    8:20   0.30   57.9    72    3.7   250     6.1   969.0    0.00 
 127    8:30   0.69   58.9    68    2.6   198     5.0   969.0    0.00 
 127    8:40   0.83   62.1    64    3.4   154     6.8   969.0    0.00 
 127    8:50   0.86   63.5    61    3.8   121     8.1   969.1    0.00 
 127    9:00   0.70   62.2    63    3.8   276     6.5   969.2    0.00 
 127    9:10   0.80   61.3    64    4.1   259     8.6   969.2    0.00 
 127    9:20   0.25   60.9    64    4.0   252     7.7   969.2    0.00 
 127    9:30   0.62   61.6    61    3.7   302     6.1   969.2    0.00 
 127    9:40   0.98   64.5    56    2.6    25     6.6   969.3    0.00 
 127    9:50   0.98   67.6    52    3.0    57     6.1   969.3    0.00 
 127   10:00   1.11   68.1    51    3.2    65     6.8   969.4    0.00 
 127   10:10   0.58   67.2    52    5.5   304     9.2   969.5    0.00 
 127   10:20   0.23   62.7    57    5.2   242     7.9   969.6    0.00 
 127   10:30   0.23   62.2    58    6.0   242     9.3   969.5    0.00 
 127   10:40   0.32   63.0    57    4.8   222     9.1   969.4    0.00 
 127   10:50   0.45   63.8    55    5.6   254    11.5   969.3    0.00 
 127   11:00   1.01   64.7    53    5.7   264    12.6   969.2    0.00 
 127   11:10   0.67   65.4    50    5.4   202    12.0   969.2    0.00 
 127   11:20   0.26   65.2    50    4.8   276    10.9   969.1    0.00 
 127   11:30   0.14   63.6    57    8.0   358    15.1   969.1    0.00 
 127   11:40   0.10   60.5    72    9.1   358    15.8   969.1    0.02 
 127   11:50   0.09   58.5    84    5.9   357    10.2   968.9    0.05 
 127   12:00   0.08   57.3    85    4.4     1     7.5   968.8    0.11 
 127   12:10   0.09   56.8    88    4.8   190     8.6   968.8    0.09 
 127   12:20   0.11   55.7    88    4.2   196    10.2   968.9    0.01 
 127   12:30   0.11   55.5    90    5.3   208     9.6   969.0    0.01 

Return to Sedgwick Reserve graphs page.


Western Regional Climate Center,wrcc@dri.edu